createdAt,value
2023-05-06T00:00:07.680Z,9.52
2023-05-06T00:05:09.407Z,9.82
2023-05-06T00:10:11.204Z,7.38
2023-05-06T00:15:12.782Z,7.95
2023-05-06T00:20:14.821Z,7.47
2023-05-06T00:25:16.339Z,6.95
2023-05-06T00:30:18.011Z,8.45
2023-05-06T00:35:19.582Z,8.13
2023-05-06T00:40:21.075Z,10.27
2023-05-06T00:45:22.563Z,7.05
2023-05-06T00:50:24.178Z,7.50
2023-05-06T00:55:26.148Z,8.50
2023-05-06T01:00:27.635Z,13.50
2023-05-06T01:05:31.256Z,8.55
2023-05-06T01:10:54.308Z,8.38
2023-05-06T01:15:57.108Z,7.65
2023-05-06T01:20:59.105Z,8.75
2023-05-06T01:26:00.639Z,9.63
2023-05-06T01:31:12.275Z,8.00
2023-05-06T01:36:18.848Z,9.18
2023-05-06T01:41:20.600Z,10.90
2023-05-06T01:46:22.297Z,9.30
2023-05-06T01:51:23.791Z,7.75
2023-05-06T01:56:27.041Z,9.52
2023-05-06T02:01:28.553Z,9.13
2023-05-06T02:06:30.054Z,10.60
2023-05-06T02:11:31.517Z,7.95
2023-05-06T02:16:33.085Z,11.38
2023-05-06T02:21:34.671Z,9.30
2023-05-06T02:26:36.133Z,12.55
2023-05-06T02:31:37.721Z,11.48
2023-05-06T02:36:39.241Z,9.98
2023-05-06T02:41:40.687Z,12.60
2023-05-06T02:46:43.565Z,10.90
2023-05-06T02:56:46.399Z,11.23
2023-05-06T03:01:47.893Z,12.82
2023-05-06T03:06:49.365Z,12.13
2023-05-06T03:11:50.844Z,9.63
2023-05-06T03:16:52.364Z,9.57
2023-05-06T03:21:53.957Z,10.85
2023-05-06T03:26:55.458Z,9.98
2023-05-06T03:31:57.146Z,12.30
2023-05-06T03:36:58.808Z,12.18
2023-05-06T03:42:00.275Z,13.27
2023-05-06T03:47:01.725Z,12.80
2023-05-06T03:52:03.188Z,15.90
2023-05-06T03:57:05.265Z,12.05
2023-05-06T04:02:06.877Z,11.63
2023-05-06T04:07:08.997Z,10.52
2023-05-06T04:12:10.654Z,12.63
2023-05-06T04:17:12.178Z,19.27
2023-05-06T04:22:13.663Z,17.60
2023-05-06T04:27:15.206Z,11.63
2023-05-06T04:32:17.992Z,14.02
2023-05-06T04:37:20.034Z,12.43
2023-05-06T04:42:21.610Z,13.73
2023-05-06T04:47:23.155Z,12.23
2023-05-06T04:52:24.714Z,14.02
2023-05-06T04:57:26.262Z,15.35
2023-05-06T05:02:27.796Z,13.48
2023-05-06T05:07:29.332Z,14.05
2023-05-06T05:12:31.192Z,14.00
2023-05-06T05:17:32.640Z,17.75
2023-05-06T05:22:34.100Z,13.52
2023-05-06T05:27:36.340Z,11.90
2023-05-06T05:32:37.861Z,15.55
2023-05-06T05:37:39.354Z,15.43
2023-05-06T05:42:40.796Z,13.90
2023-05-06T05:47:42.310Z,16.92
2023-05-06T05:52:43.780Z,12.07
2023-05-06T05:57:51.768Z,16.05
2023-05-06T06:02:53.384Z,13.27
2023-05-06T06:07:54.963Z,13.43
2023-05-06T06:12:56.515Z,16.50
2023-05-06T06:17:58.133Z,14.77
2023-05-06T06:22:59.644Z,12.38
2023-05-06T06:28:01.124Z,16.13
2023-05-06T06:33:02.638Z,16.50
2023-05-06T06:38:04.120Z,14.60
2023-05-06T06:43:05.613Z,15.63
2023-05-06T06:48:07.133Z,11.80
2023-05-06T06:53:09.815Z,9.80
2023-05-06T06:58:11.402Z,17.67
2023-05-06T07:03:15.797Z,12.50
2023-05-06T07:08:17.370Z,11.38
2023-05-06T07:13:20.676Z,13.38
2023-05-06T07:18:22.303Z,12.18
2023-05-06T07:23:23.769Z,11.45
2023-05-06T07:28:25.718Z,10.95
2023-05-06T07:33:27.178Z,12.73
2023-05-06T07:38:28.621Z,12.70
2023-05-06T07:43:30.098Z,10.02
2023-05-06T07:48:33.073Z,11.38
2023-05-06T07:53:34.835Z,11.80
2023-05-06T07:58:36.316Z,10.77
2023-05-06T08:03:38.037Z,11.15
2023-05-06T08:08:39.634Z,10.93
2023-05-06T08:13:41.140Z,14.30
2023-05-06T08:18:42.591Z,11.02
2023-05-06T08:23:44.057Z,10.45
2023-05-06T08:28:45.619Z,10.45
2023-05-06T08:33:47.084Z,10.27
2023-05-06T08:38:50.718Z,14.07
2023-05-06T08:43:52.341Z,13.50
2023-05-06T08:48:53.905Z,15.00
2023-05-06T08:53:55.935Z,11.52
2023-05-06T08:58:58.441Z,13.23
2023-05-06T09:03:59.917Z,9.30
2023-05-06T09:09:01.386Z,11.27
2023-05-06T09:14:13.397Z,11.55
2023-05-06T09:19:15.544Z,10.13
2023-05-06T09:24:17.110Z,13.77
2023-05-06T09:29:18.578Z,9.98
2023-05-06T09:34:21.119Z,10.15
2023-05-06T09:39:26.601Z,12.35
2023-05-06T09:44:28.124Z,13.18
2023-05-06T09:49:29.591Z,12.20
2023-05-06T09:54:31.072Z,10.25
2023-05-06T09:59:32.540Z,11.88
2023-05-06T10:04:34.472Z,13.45
2023-05-06T10:09:36.103Z,14.43
2023-05-06T10:14:37.801Z,12.00
2023-05-06T10:19:40.216Z,13.20
2023-05-06T10:24:47.429Z,14.32
2023-05-06T10:29:48.919Z,11.50
2023-05-06T10:34:54.782Z,12.00
2023-05-06T10:39:56.327Z,11.98
2023-05-06T10:45:03.676Z,11.05
2023-05-06T10:50:31.618Z,13.85
2023-05-06T10:55:34.534Z,12.25
2023-05-06T11:00:36.185Z,10.88
2023-05-06T11:05:48.851Z,10.88
2023-05-06T11:10:50.956Z,11.38
2023-05-06T11:15:52.501Z,10.15
2023-05-06T11:21:03.045Z,12.27
2023-05-06T11:26:06.936Z,9.43
2023-05-06T11:31:08.475Z,11.43
2023-05-06T11:36:13.869Z,7.95
2023-05-06T11:41:15.692Z,9.50
2023-05-06T11:46:21.192Z,10.88
2023-05-06T11:51:23.143Z,12.05
2023-05-06T11:56:25.009Z,12.30
2023-05-06T12:01:26.486Z,10.63
2023-05-06T12:06:37.035Z,11.45
2023-05-06T12:11:38.994Z,13.55
2023-05-06T12:16:41.269Z,12.70
2023-05-06T12:21:43.110Z,11.90
2023-05-06T12:26:46.037Z,12.00
2023-05-06T12:31:47.691Z,12.38
2023-05-06T12:36:49.197Z,11.77
2023-05-06T12:41:50.768Z,14.80
2023-05-06T12:46:55.002Z,12.40
2023-05-06T12:52:09.528Z,10.80
2023-05-06T12:57:11.105Z,12.05
2023-05-06T13:02:12.717Z,15.02
2023-05-06T13:07:14.273Z,12.50
2023-05-06T13:12:15.838Z,13.60
2023-05-06T13:17:17.621Z,14.73
2023-05-06T13:22:19.916Z,14.02
2023-05-06T13:27:21.787Z,12.80
2023-05-06T13:32:23.382Z,12.55
2023-05-06T13:37:24.840Z,10.82
2023-05-06T13:42:26.303Z,18.45
2023-05-06T13:47:27.810Z,13.27
2023-05-06T13:52:29.299Z,12.88
2023-05-06T13:57:30.787Z,12.57
2023-05-06T14:02:32.293Z,14.23
2023-05-06T14:07:33.879Z,15.00
2023-05-06T14:12:35.385Z,13.55
2023-05-06T14:17:37.121Z,15.13
2023-05-06T14:22:39.974Z,14.07
2023-05-06T14:27:41.428Z,14.32
2023-05-06T14:32:43.570Z,17.92
2023-05-06T14:37:45.216Z,18.25
2023-05-06T14:42:46.682Z,12.40
2023-05-06T14:47:48.270Z,12.68
2023-05-06T14:52:49.792Z,13.68
2023-05-06T14:57:52.021Z,11.80
2023-05-06T15:02:53.662Z,12.20
2023-05-06T15:07:55.259Z,10.50
2023-05-06T15:12:56.766Z,12.95
2023-05-06T15:17:58.339Z,12.95
2023-05-06T15:22:59.886Z,13.70
2023-05-06T15:28:01.390Z,13.90
2023-05-06T15:33:03.040Z,12.73
2023-05-06T15:38:04.611Z,13.32
2023-05-06T15:43:06.141Z,13.30
2023-05-06T15:48:07.711Z,13.73
2023-05-06T15:53:09.581Z,15.10
2023-05-06T15:58:11.060Z,11.63
2023-05-06T16:03:12.921Z,16.17
2023-05-06T16:08:14.562Z,15.98
2023-05-06T16:13:16.106Z,13.40
2023-05-06T16:18:17.631Z,15.48
2023-05-06T16:23:19.491Z,14.90
2023-05-06T16:28:20.977Z,12.57
2023-05-06T16:33:22.427Z,14.10
2023-05-06T16:38:24.667Z,12.60
2023-05-06T16:43:26.154Z,13.10
2023-05-06T16:48:27.760Z,13.55
2023-05-06T16:53:29.480Z,16.20
2023-05-06T16:58:31.033Z,18.35
2023-05-06T17:03:32.623Z,20.25
2023-05-06T17:08:36.380Z,16.52
2023-05-06T17:13:38.455Z,20.05
2023-05-06T17:18:39.940Z,16.73
2023-05-06T17:23:41.466Z,13.82
2023-05-06T17:28:42.960Z,18.60
2023-05-06T17:33:44.735Z,15.63
2023-05-06T17:38:49.030Z,15.00
2023-05-06T17:43:50.963Z,16.05
2023-05-06T17:48:53.019Z,17.05
2023-05-06T17:53:54.481Z,15.82
2023-05-06T17:58:58.055Z,22.52
2023-05-06T18:03:59.619Z,18.33
2023-05-06T18:09:01.176Z,19.33
2023-05-06T18:14:02.657Z,20.35
2023-05-06T18:19:05.142Z,17.65
2023-05-06T18:24:15.858Z,19.83
2023-05-06T18:29:18.190Z,26.00
2023-05-06T18:34:19.668Z,17.40
2023-05-06T18:39:22.830Z,21.83
2023-05-06T18:44:24.338Z,17.65
2023-05-06T18:49:27.419Z,14.18
2023-05-06T18:54:28.878Z,16.33
2023-05-06T18:59:30.576Z,14.02
2023-05-06T19:04:32.144Z,17.75
2023-05-06T19:09:36.822Z,17.15
2023-05-06T19:14:38.298Z,20.25
2023-05-06T19:19:40.621Z,17.35
2023-05-06T19:24:42.144Z,20.23
2023-05-06T19:29:43.613Z,17.02
2023-05-06T19:34:45.073Z,17.83
2023-05-06T19:39:47.514Z,15.27
2023-05-06T19:44:49.631Z,17.23
2023-05-06T19:49:53.735Z,18.13
2023-05-06T19:54:55.218Z,17.60
2023-05-06T19:59:56.771Z,17.95
2023-05-06T20:04:58.283Z,20.52
2023-05-06T20:09:59.829Z,18.98
2023-05-06T20:15:03.527Z,18.92
2023-05-06T20:20:09.630Z,20.70
2023-05-06T20:25:13.016Z,15.75
2023-05-06T20:30:14.842Z,20.10
2023-05-06T20:35:16.847Z,17.48
2023-05-06T20:40:18.354Z,15.38
2023-05-06T20:45:19.925Z,21.13
2023-05-06T20:50:21.386Z,19.40
2023-05-06T20:55:23.650Z,17.50
2023-05-06T21:00:25.211Z,18.17
2023-05-06T21:05:26.755Z,15.50
2023-05-06T21:10:28.255Z,18.98
2023-05-06T21:15:29.784Z,19.98
2023-05-06T21:20:31.953Z,18.38
2023-05-06T21:25:33.446Z,18.20
2023-05-06T21:30:35.025Z,18.60
2023-05-06T21:35:36.766Z,14.70
2023-05-06T21:40:38.397Z,15.48
2023-05-06T21:45:39.944Z,17.80
2023-05-06T21:50:41.438Z,13.60
2023-05-06T21:55:42.907Z,16.35
2023-05-06T22:00:44.410Z,16.00
2023-05-06T22:05:45.886Z,18.67
2023-05-06T22:10:47.366Z,16.23
2023-05-06T22:15:48.835Z,18.17
2023-05-06T22:20:52.408Z,19.50
2023-05-06T22:25:53.926Z,16.77
2023-05-06T22:30:55.432Z,14.57
2023-05-06T22:35:56.958Z,17.90
2023-05-06T22:40:58.418Z,18.15
2023-05-06T22:46:00.035Z,17.08
2023-05-06T22:51:02.826Z,18.25
2023-05-06T23:01:07.240Z,20.75
2023-05-06T23:06:09.928Z,19.73
2023-05-06T23:11:11.387Z,25.05
2023-05-06T23:16:14.479Z,21.60
2023-05-06T23:21:16.159Z,23.92
2023-05-06T23:26:17.625Z,18.92
2023-05-06T23:31:19.212Z,20.42
2023-05-06T23:36:21.171Z,21.95
2023-05-06T23:41:23.494Z,18.40
2023-05-06T23:46:24.997Z,17.17
2023-05-06T23:51:26.542Z,23.58
2023-05-06T23:56:28.458Z,20.77
